Большое Савино

СКИДКИ НА СМАРТФОНЫ!

Карта отелей и гостиниц, располагающихся рядом с аэропортом Большое Савино :

Большое Савино
Пермь
Пермский край 57° 54' 52.2" N, 56° 1' 16.9212" E
Код аэродрома ИКАО
USPP
Код аэродрома RU
УСПП
Координаты
N57.91450° E056.02137°
Превышение над уровнем моря
123
Основная полоса
03/21
Курс магнитный
030,8/210,8
Длина основной ВПП
3210
Ширина основной ВПП
49
Покрытие основной ВПП
Твёрдое (цементобетон)
Освещение ВПП
Постоянное
Тип: 
Аэродром
Класс аэродрома: 
Международный
Принадлежность: 
ГА
Статус: 
Действующий
Сайт: 
http://www.aviaperm.ru/
Страна: 
Россия
Регион: 
Пермский край
Город: 
Пермь
Дополнительная информация: 
Оператор: МО РФ. Совместного базирования (ФАВТ и МО). Нкр.=(600)м. Военный индекс: XSPP / ЬСПП.
Погода: 

Авиационная погода в Перми

Регион: 
Погода METAR: 
USPP 091530Z 07003MPS 9999 SCT043CB 25/18 Q1018 R21/090060 TEMPO VRB18MPS 2200 -TSRA SQ BKN016CB RMK QFE753
Время наблюдения
2022-08-09T15:30:00Z
Температура C
25.0
Точка росы
18.0
Направление ветра
70
Скорость ветра (узлы)
6
Метео видимость
6.21
Облачность
SCT
Нижняя граница облачности (футы)
4300
Явления погоды
Условия полета
VFR
Аэропорт подробнее: 
SCT – разбросанная отдельная облачность;

Скидки на навигаторы!

Найти трансфер

С помощью этой формы Вы можете найти трансфер из аэропорта Большое Савино в город, аэропорт или вокзал:

Погода в аэропортах:

Авиационная погода в Вадсё

Регион: 
Погода METAR: 
ENVD 091520Z 28005KT 250V300 9999 VCSH SCT049 BKN110 14/10 Q1016
Время наблюдения
2022-08-09T15:20:00Z
Температура C
14.0
Точка росы
10.0
Направление ветра
280
Скорость ветра (узлы)
5
Метео видимость
6.21
Облачность
SCT
BKN
Нижняя граница облачности (футы)
4900
11000
Явления погоды
VCSH
Условия полета
VFR
SCT – разбросанная отдельная облачность; BKN – значительная (рассеянная, разорванная) облачность;

Авиационная погода в Елизово

Регион: 
Погода METAR: 
UHPP 091600Z 15006MPS 8000 -SHRA SCT008 OVC031CB 12/12 Q1014 R16R/CLRD70 NOSIG RMK QFE757/1010
Время наблюдения
2022-08-09T16:00:00Z
Температура C
12.0
Точка росы
12.0
Направление ветра
150
Скорость ветра (узлы)
12
Метео видимость
4.97
Облачность
SCT
OVC
Нижняя граница облачности (футы)
800
3100
Явления погоды
-SHRA
Условия полета
MVFR
Аэропорт подробнее: 
SCT – разбросанная отдельная облачность; OVC – сплошная облачность;
-SHRA - слабый ливневой дождь;

Авиационная погода в Череповце

Регион: 
Погода METAR: 
ULWC 091530Z 04003MPS 9999 TS SCT026CB 19/12 Q1023 R21/010063 NOSIG RMK QFE757/1010
Время наблюдения
2022-08-09T15:30:00Z
Температура C
19.0
Точка росы
12.0
Направление ветра
40
Скорость ветра (узлы)
6
Метео видимость
6.21
Облачность
SCT
Нижняя граница облачности (футы)
2600
Явления погоды
TS
Условия полета
VFR
Аэропорт подробнее: 
SCT – разбросанная отдельная облачность;

Авиационная погода в Нижневартовске

Регион: 
Погода METAR: 
USNN 091530Z 34001MPS 1300 1100NE R21/1200N HZ FEW020CB 22/20 Q1015 R21/0///65 NOSIG RMK QFE756
Время наблюдения
2022-08-09T15:30:00Z
Температура C
22.0
Точка росы
20.0
Направление ветра
340
Скорость ветра (узлы)
2
Метео видимость
0.81
Облачность
FEW
Нижняя граница облачности (футы)
2000
Явления погоды
HZ
Условия полета
LIFR
Аэропорт подробнее: 
FEW – незначительная облачность;
HZ – мгла (видимость менее 10 км);